sensor_id;sensor_type;location;lat;lon;timestamp;pressure;altitude;pressure_sealevel;temperature;humidity
27144;BME280;14672;50.250;8.312;2023-05-08T00:01:43;99176.91;;;18.71;67.29
27144;BME280;14672;50.250;8.312;2023-05-08T00:04:09;99172.34;;;18.59;67.66
27144;BME280;14672;50.250;8.312;2023-05-08T00:06:35;99166.59;;;18.59;67.85
27144;BME280;14672;50.250;8.312;2023-05-08T00:09:00;99173.88;;;18.55;67.93
27144;BME280;14672;50.250;8.312;2023-05-08T00:11:26;99175.06;;;18.48;68.26
27144;BME280;14672;50.250;8.312;2023-05-08T00:13:52;99174.00;;;18.46;68.14
27144;BME280;14672;50.250;8.312;2023-05-08T00:16:17;99167.22;;;18.49;67.56
27144;BME280;14672;50.250;8.312;2023-05-08T00:18:43;99173.28;;;18.51;67.54
27144;BME280;14672;50.250;8.312;2023-05-08T00:21:09;99170.22;;;18.54;67.41
27144;BME280;14672;50.250;8.312;2023-05-08T00:23:35;99168.63;;;18.53;66.64
27144;BME280;14672;50.250;8.312;2023-05-08T00:26:01;99165.88;;;18.44;67.42
27144;BME280;14672;50.250;8.312;2023-05-08T00:28:26;99172.88;;;18.38;67.90
27144;BME280;14672;50.250;8.312;2023-05-08T00:30:52;99175.25;;;18.39;68.27
27144;BME280;14672;50.250;8.312;2023-05-08T00:33:18;99173.66;;;18.38;67.61
27144;BME280;14672;50.250;8.312;2023-05-08T00:35:44;99176.22;;;18.36;67.53
27144;BME280;14672;50.250;8.312;2023-05-08T00:38:10;99179.41;;;18.38;67.65
27144;BME280;14672;50.250;8.312;2023-05-08T00:40:35;99185.88;;;18.33;68.08
27144;BME280;14672;50.250;8.312;2023-05-08T00:43:02;99172.50;;;18.30;68.32
27144;BME280;14672;50.250;8.312;2023-05-08T00:45:33;99180.50;;;18.20;69.27
27144;BME280;14672;50.250;8.312;2023-05-08T00:48:01;99179.47;;;18.23;69.06
27144;BME280;14672;50.250;8.312;2023-05-08T00:50:28;99182.50;;;18.14;69.16
27144;BME280;14672;50.250;8.312;2023-05-08T00:52:55;99176.19;;;18.10;69.51
27144;BME280;14672;50.250;8.312;2023-05-08T00:55:21;99184.38;;;18.17;69.10
27144;BME280;14672;50.250;8.312;2023-05-08T00:57:48;99177.34;;;18.18;69.04
27144;BME280;14672;50.250;8.312;2023-05-08T01:00:16;99179.13;;;18.16;68.81
27144;BME280;14672;50.250;8.312;2023-05-08T01:02:43;99175.66;;;18.12;69.25
27144;BME280;14672;50.250;8.312;2023-05-08T01:05:09;99172.38;;;18.19;68.20
27144;BME280;14672;50.250;8.312;2023-05-08T01:07:35;99173.38;;;18.16;68.62
27144;BME280;14672;50.250;8.312;2023-05-08T01:10:05;99182.22;;;18.12;68.55
27144;BME280;14672;50.250;8.312;2023-05-08T01:13:10;99180.94;;;18.13;68.69
27144;BME280;14672;50.250;8.312;2023-05-08T01:15:50;99179.56;;;18.09;68.80
27144;BME280;14672;50.250;8.312;2023-05-08T01:18:30;99171.66;;;18.04;68.33
27144;BME280;14672;50.250;8.312;2023-05-08T01:24:24;99178.41;;;18.01;69.37
27144;BME280;14672;50.250;8.312;2023-05-08T01:30:09;99184.59;;;17.94;69.08
27144;BME280;14672;50.250;8.312;2023-05-08T01:32:42;99190.91;;;17.98;69.08
27144;BME280;14672;50.250;8.312;2023-05-08T01:35:28;99193.09;;;18.03;69.05
27144;BME280;14672;50.250;8.312;2023-05-08T01:38:31;99193.31;;;17.99;68.07
27144;BME280;14672;50.250;8.312;2023-05-08T01:41:07;99195.78;;;17.92;68.65
27144;BME280;14672;50.250;8.312;2023-05-08T01:44:32;99195.06;;;17.97;68.22
27144;BME280;14672;50.250;8.312;2023-05-08T01:47:06;99201.53;;;17.92;68.70
27144;BME280;14672;50.250;8.312;2023-05-08T01:49:46;99194.50;;;17.93;68.64
27144;BME280;14672;50.250;8.312;2023-05-08T01:52:28;99196.50;;;17.87;68.77
27144;BME280;14672;50.250;8.312;2023-05-08T01:55:04;99191.97;;;17.80;69.24
27144;BME280;14672;50.250;8.312;2023-05-08T01:57:40;99194.03;;;17.79;68.19
27144;BME280;14672;50.250;8.312;2023-05-08T02:00:09;99200.31;;;17.78;68.38
27144;BME280;14672;50.250;8.312;2023-05-08T02:02:35;99206.25;;;17.74;68.38
27144;BME280;14672;50.250;8.312;2023-05-08T02:05:05;99211.50;;;17.76;68.47
27144;BME280;14672;50.250;8.312;2023-05-08T02:07:33;99213.41;;;17.79;68.23
27144;BME280;14672;50.250;8.312;2023-05-08T02:10:01;99217.75;;;17.74;68.63
27144;BME280;14672;50.250;8.312;2023-05-08T02:12:29;99218.25;;;17.73;68.84
27144;BME280;14672;50.250;8.312;2023-05-08T02:14:59;99216.47;;;17.75;68.24
27144;BME280;14672;50.250;8.312;2023-05-08T02:17:26;99208.41;;;17.79;68.08
27144;BME280;14672;50.250;8.312;2023-05-08T02:19:57;99208.84;;;17.72;68.66
27144;BME280;14672;50.250;8.312;2023-05-08T02:22:26;99210.53;;;17.79;67.65
27144;BME280;14672;50.250;8.312;2023-05-08T02:24:53;99212.50;;;17.73;68.00
27144;BME280;14672;50.250;8.312;2023-05-08T02:27:22;99225.66;;;17.79;67.88
27144;BME280;14672;50.250;8.312;2023-05-08T02:29:50;99222.22;;;17.75;67.51
27144;BME280;14672;50.250;8.312;2023-05-08T02:32:19;99223.00;;;17.76;67.72
27144;BME280;14672;50.250;8.312;2023-05-08T02:34:48;99228.09;;;17.66;67.96
27144;BME280;14672;50.250;8.312;2023-05-08T02:37:15;99231.25;;;17.68;67.53
27144;BME280;14672;50.250;8.312;2023-05-08T02:39:44;99232.25;;;17.65;67.77
27144;BME280;14672;50.250;8.312;2023-05-08T02:42:11;99239.28;;;17.64;67.95
27144;BME280;14672;50.250;8.312;2023-05-08T02:44:37;99231.16;;;17.63;67.59
27144;BME280;14672;50.250;8.312;2023-05-08T02:47:20;99237.88;;;17.60;67.83
27144;BME280;14672;50.250;8.312;2023-05-08T02:49:58;99229.28;;;17.60;67.82
27144;BME280;14672;50.250;8.312;2023-05-08T02:52:32;99235.53;;;17.58;67.99
27144;BME280;14672;50.250;8.312;2023-05-08T02:55:22;99223.69;;;17.56;67.68
27144;BME280;14672;50.250;8.312;2023-05-08T02:58:19;99233.13;;;17.57;67.83
27144;BME280;14672;50.250;8.312;2023-05-08T03:00:57;99232.72;;;17.49;67.85
27144;BME280;14672;50.250;8.312;2023-05-08T03:03:27;99230.88;;;17.46;67.93
27144;BME280;14672;50.250;8.312;2023-05-08T03:05:59;99236.41;;;17.50;67.71
27144;BME280;14672;50.250;8.312;2023-05-08T03:08:31;99235.91;;;17.51;67.57
27144;BME280;14672;50.250;8.312;2023-05-08T03:11:03;99239.06;;;17.53;67.39
27144;BME280;14672;50.250;8.312;2023-05-08T03:13:32;99234.59;;;17.52;67.33
27144;BME280;14672;50.250;8.312;2023-05-08T03:16:03;99245.91;;;17.41;67.98
27144;BME280;14672;50.250;8.312;2023-05-08T03:18:38;99245.91;;;17.41;67.94
27144;BME280;14672;50.250;8.312;2023-05-08T03:21:08;99239.97;;;17.45;67.16
27144;BME280;14672;50.250;8.312;2023-05-08T03:23:38;99241.97;;;17.38;67.58
27144;BME280;14672;50.250;8.312;2023-05-08T03:26:05;99241.38;;;17.34;67.88
27144;BME280;14672;50.250;8.312;2023-05-08T03:28:34;99240.38;;;17.37;67.87
27144;BME280;14672;50.250;8.312;2023-05-08T03:31:01;99238.19;;;17.32;68.59
27144;BME280;14672;50.250;8.312;2023-05-08T03:33:29;99239.50;;;17.31;67.96
27144;BME280;14672;50.250;8.312;2023-05-08T03:35:57;99243.44;;;17.34;68.17
27144;BME280;14672;50.250;8.312;2023-05-08T03:38:24;99248.19;;;17.37;68.22
27144;BME280;14672;50.250;8.312;2023-05-08T03:40:50;99237.91;;;17.30;68.29
27144;BME280;14672;50.250;8.312;2023-05-08T03:43:17;99238.72;;;17.31;67.91
27144;BME280;14672;50.250;8.312;2023-05-08T03:45:44;99240.59;;;17.34;67.91
27144;BME280;14672;50.250;8.312;2023-05-08T03:48:12;99236.81;;;17.28;68.17
27144;BME280;14672;50.250;8.312;2023-05-08T03:50:39;99235.25;;;17.27;67.40
27144;BME280;14672;50.250;8.312;2023-05-08T03:53:06;99244.13;;;17.29;67.98
27144;BME280;14672;50.250;8.312;2023-05-08T03:55:32;99235.53;;;17.29;67.80
27144;BME280;14672;50.250;8.312;2023-05-08T04:01:23;99238.50;;;17.20;67.83
27144;BME280;14672;50.250;8.312;2023-05-08T04:04:15;99236.13;;;17.18;67.80
27144;BME280;14672;50.250;8.312;2023-05-08T04:07:27;99232.75;;;17.20;67.83
27144;BME280;14672;50.250;8.312;2023-05-08T04:10:12;99237.22;;;17.21;67.87
27144;BME280;14672;50.250;8.312;2023-05-08T04:13:18;99240.41;;;17.23;67.79
27144;BME280;14672;50.250;8.312;2023-05-08T04:16:15;99236.41;;;17.20;68.07
27144;BME280;14672;50.250;8.312;2023-05-08T04:18:45;99237.34;;;17.12;68.66
27144;BME280;14672;50.250;8.312;2023-05-08T04:21:18;99244.03;;;17.09;68.90
27144;BME280;14672;50.250;8.312;2023-05-08T04:23:48;99234.63;;;17.08;68.46
27144;BME280;14672;50.250;8.312;2023-05-08T04:26:16;99253.84;;;17.02;68.63
27144;BME280;14672;50.250;8.312;2023-05-08T04:28:42;99251.09;;;17.08;69.08
27144;BME280;14672;50.250;8.312;2023-05-08T04:31:09;99248.22;;;17.08;67.84
27144;BME280;14672;50.250;8.312;2023-05-08T04:33:35;99249.91;;;17.00;67.95
27144;BME280;14672;50.250;8.312;2023-05-08T04:36:01;99263.72;;;17.01;68.17
27144;BME280;14672;50.250;8.312;2023-05-08T04:38:28;99266.72;;;17.07;68.22
27144;BME280;14672;50.250;8.312;2023-05-08T04:40:54;99266.41;;;17.05;68.34
27144;BME280;14672;50.250;8.312;2023-05-08T04:43:20;99262.47;;;17.02;68.20
27144;BME280;14672;50.250;8.312;2023-05-08T04:45:45;99265.63;;;17.04;68.59
27144;BME280;14672;50.250;8.312;2023-05-08T04:48:11;99266.13;;;17.03;68.70
27144;BME280;14672;50.250;8.312;2023-05-08T04:50:37;99269.19;;;16.99;69.13
27144;BME280;14672;50.250;8.312;2023-05-08T04:53:03;99267.41;;;17.02;68.26
27144;BME280;14672;50.250;8.312;2023-05-08T04:55:28;99279.69;;;17.02;68.74
27144;BME280;14672;50.250;8.312;2023-05-08T04:57:54;99277.28;;;17.01;68.63
27144;BME280;14672;50.250;8.312;2023-05-08T05:00:20;99278.69;;;17.05;68.41
27144;BME280;14672;50.250;8.312;2023-05-08T05:02:45;99274.34;;;17.10;68.46
27144;BME280;14672;50.250;8.312;2023-05-08T05:05:11;99283.28;;;17.12;68.48
27144;BME280;14672;50.250;8.312;2023-05-08T05:07:37;99279.09;;;17.13;68.27
27144;BME280;14672;50.250;8.312;2023-05-08T05:10:03;99279.97;;;17.04;68.07
27144;BME280;14672;50.250;8.312;2023-05-08T05:12:29;99289.38;;;17.05;68.24
27144;BME280;14672;50.250;8.312;2023-05-08T05:14:55;99288.09;;;17.06;67.99
27144;BME280;14672;50.250;8.312;2023-05-08T05:17:20;99292.25;;;17.05;68.20
27144;BME280;14672;50.250;8.312;2023-05-08T05:19:46;99290.84;;;17.00;67.91
27144;BME280;14672;50.250;8.312;2023-05-08T05:22:12;99287.69;;;16.98;67.98
27144;BME280;14672;50.250;8.312;2023-05-08T05:24:38;99287.22;;;17.00;68.18
27144;BME280;14672;50.250;8.312;2023-05-08T05:27:04;99296.59;;;17.00;68.16
27144;BME280;14672;50.250;8.312;2023-05-08T05:29:33;99301.25;;;16.98;67.85
27144;BME280;14672;50.250;8.312;2023-05-08T05:32:00;99301.25;;;16.98;67.97
27144;BME280;14672;50.250;8.312;2023-05-08T05:34:26;99294.81;;;17.03;68.03
27144;BME280;14672;50.250;8.312;2023-05-08T05:36:51;99301.25;;;16.98;68.09
27144;BME280;14672;50.250;8.312;2023-05-08T05:39:17;99307.78;;;16.98;68.15
27144;BME280;14672;50.250;8.312;2023-05-08T05:41:45;99300.97;;;16.96;68.37
27144;BME280;14672;50.250;8.312;2023-05-08T05:44:11;99314.31;;;16.99;68.21
27144;BME280;14672;50.250;8.312;2023-05-08T05:46:37;99307.19;;;16.94;68.28
27144;BME280;14672;50.250;8.312;2023-05-08T05:49:03;99311.75;;;17.01;67.78
27144;BME280;14672;50.250;8.312;2023-05-08T05:51:28;99312.72;;;16.98;67.63
27144;BME280;14672;50.250;8.312;2023-05-08T05:53:54;99315.59;;;16.98;67.90
27144;BME280;14672;50.250;8.312;2023-05-08T05:56:21;99317.19;;;16.99;67.54
27144;BME280;14672;50.250;8.312;2023-05-08T05:58:48;99318.94;;;16.96;67.74
27144;BME280;14672;50.250;8.312;2023-05-08T06:01:16;99322.00;;;16.92;67.86
27144;BME280;14672;50.250;8.312;2023-05-08T06:03:42;99313.91;;;16.91;67.67
27144;BME280;14672;50.250;8.312;2023-05-08T06:06:08;99320.44;;;16.92;67.14
27144;BME280;14672;50.250;8.312;2023-05-08T06:08:34;99321.34;;;16.98;67.35
27144;BME280;14672;50.250;8.312;2023-05-08T06:11:00;99323.00;;;16.89;67.96
27144;BME280;14672;50.250;8.312;2023-05-08T06:13:26;99326.97;;;16.92;67.32
27144;BME280;14672;50.250;8.312;2023-05-08T06:15:54;99333.50;;;16.92;68.36
27144;BME280;14672;50.250;8.312;2023-05-08T06:18:22;99332.53;;;16.96;67.66
27144;BME280;14672;50.250;8.312;2023-05-08T06:20:48;99329.66;;;16.96;68.08
27144;BME280;14672;50.250;8.312;2023-05-08T06:23:19;99330.28;;;17.00;67.65
27144;BME280;14672;50.250;8.312;2023-05-08T06:25:44;99333.13;;;17.00;68.05
27144;BME280;14672;50.250;8.312;2023-05-08T06:28:10;99329.06;;;16.92;67.62
27144;BME280;14672;50.250;8.312;2023-05-08T06:30:36;99332.41;;;16.90;68.28
27144;BME280;14672;50.250;8.312;2023-05-08T06:33:02;99327.88;;;16.98;68.02
27144;BME280;14672;50.250;8.312;2023-05-08T06:35:28;99333.91;;;17.00;67.88
27144;BME280;14672;50.250;8.312;2023-05-08T06:37:54;99334.69;;;17.01;68.22
27144;BME280;14672;50.250;8.312;2023-05-08T06:40:19;99340.16;;;16.99;68.17
27144;BME280;14672;50.250;8.312;2023-05-08T06:42:45;99343.91;;;17.05;68.25
27144;BME280;14672;50.250;8.312;2023-05-08T06:45:11;99340.94;;;16.99;68.70
27144;BME280;14672;50.250;8.312;2023-05-08T06:47:37;99334.41;;;16.99;69.18
27144;BME280;14672;50.250;8.312;2023-05-08T06:50:03;99334.41;;;16.99;68.41
27144;BME280;14672;50.250;8.312;2023-05-08T06:52:29;99344.91;;;17.02;68.29
27144;BME280;14672;50.250;8.312;2023-05-08T06:54:55;99334.03;;;17.06;67.70
27144;BME280;14672;50.250;8.312;2023-05-08T06:57:21;99335.50;;;17.01;67.95
27144;BME280;14672;50.250;8.312;2023-05-08T06:59:48;99334.81;;;17.06;67.56
27144;BME280;14672;50.250;8.312;2023-05-08T07:02:14;99333.75;;;17.04;67.74
27144;BME280;14672;50.250;8.312;2023-05-08T07:04:43;99326.59;;;16.99;68.23
27144;BME280;14672;50.250;8.312;2023-05-08T07:07:08;99319.38;;;17.04;67.90
27144;BME280;14672;50.250;8.312;2023-05-08T07:09:36;99324.75;;;17.11;67.55
27144;BME280;14672;50.250;8.312;2023-05-08T07:12:01;99321.94;;;17.02;67.45
27144;BME280;14672;50.250;8.312;2023-05-08T07:14:27;99319.69;;;17.06;67.94
27144;BME280;14672;50.250;8.312;2023-05-08T07:16:53;99321.47;;;17.03;68.03
27144;BME280;14672;50.250;8.312;2023-05-08T07:19:19;99325.34;;;17.15;68.07
27144;BME280;14672;50.250;8.312;2023-05-08T07:21:45;99315.06;;;17.23;67.69
27144;BME280;14672;50.250;8.312;2023-05-08T07:24:11;99325.81;;;17.28;68.58
27144;BME280;14672;50.250;8.312;2023-05-08T07:26:37;99325.53;;;17.26;68.67
27144;BME280;14672;50.250;8.312;2023-05-08T07:29:03;99329.63;;;17.34;68.51
27144;BME280;14672;50.250;8.312;2023-05-08T07:31:28;99322.97;;;17.43;69.05
27144;BME280;14672;50.250;8.312;2023-05-08T07:33:55;99328.53;;;17.46;68.89
27144;BME280;14672;50.250;8.312;2023-05-08T07:36:21;99322.38;;;17.53;68.12
27144;BME280;14672;50.250;8.312;2023-05-08T07:38:47;99319.13;;;17.60;67.98
27144;BME280;14672;50.250;8.312;2023-05-08T07:41:12;99319.31;;;17.57;68.11
27144;BME280;14672;50.250;8.312;2023-05-08T07:43:38;99324.88;;;17.60;67.84
27144;BME280;14672;50.250;8.312;2023-05-08T07:46:04;99314.69;;;17.59;68.32
27144;BME280;14672;50.250;8.312;2023-05-08T07:48:30;99322.72;;;17.70;68.11
27144;BME280;14672;50.250;8.312;2023-05-08T07:50:56;99322.50;;;17.73;68.08
27144;BME280;14672;50.250;8.312;2023-05-08T07:53:22;99320.81;;;17.81;67.28
27144;BME280;14672;50.250;8.312;2023-05-08T07:55:47;99323.19;;;17.83;67.56
27144;BME280;14672;50.250;8.312;2023-05-08T07:58:13;99335.47;;;17.83;67.59
27144;BME280;14672;50.250;8.312;2023-05-08T08:00:39;99334.75;;;17.89;67.85
27144;BME280;14672;50.250;8.312;2023-05-08T08:03:05;99339.50;;;17.92;67.78
27144;BME280;14672;50.250;8.312;2023-05-08T08:05:31;99339.50;;;17.92;67.88
27144;BME280;14672;50.250;8.312;2023-05-08T08:07:57;99344.28;;;17.95;68.38
27144;BME280;14672;50.250;8.312;2023-05-08T08:10:23;99344.56;;;17.97;67.93
27144;BME280;14672;50.250;8.312;2023-05-08T08:12:49;99340.81;;;17.91;67.50
27144;BME280;14672;50.250;8.312;2023-05-08T08:15:14;99337.44;;;17.92;67.10
27144;BME280;14672;50.250;8.312;2023-05-08T08:17:40;99335.06;;;17.91;67.06
27144;BME280;14672;50.250;8.312;2023-05-08T08:20:06;99341.78;;;17.88;66.85
27144;BME280;14672;50.250;8.312;2023-05-08T08:22:32;99336.84;;;17.88;67.08
27144;BME280;14672;50.250;8.312;2023-05-08T08:24:58;99345.09;;;17.95;67.09
27144;BME280;14672;50.250;8.312;2023-05-08T08:27:24;99342.97;;;17.96;67.47
27144;BME280;14672;50.250;8.312;2023-05-08T08:29:50;99342.91;;;17.90;67.91
27144;BME280;14672;50.250;8.312;2023-05-08T08:32:15;99344.56;;;17.97;67.42
27144;BME280;14672;50.250;8.312;2023-05-08T08:34:41;99356.66;;;18.01;67.89
27144;BME280;14672;50.250;8.312;2023-05-08T08:37:07;99355.59;;;17.98;67.04
27144;BME280;14672;50.250;8.312;2023-05-08T08:39:34;99349.31;;;18.00;66.84
27144;BME280;14672;50.250;8.312;2023-05-08T08:42:00;99356.66;;;18.01;67.13
27144;BME280;14672;50.250;8.312;2023-05-08T08:44:26;99351.72;;;17.87;66.60
27144;BME280;14672;50.250;8.312;2023-05-08T08:46:53;99355.06;;;18.00;66.68
27144;BME280;14672;50.250;8.312;2023-05-08T08:49:33;99354.09;;;18.03;66.83
27144;BME280;14672;50.250;8.312;2023-05-08T08:52:29;99360.53;;;17.98;67.26
27144;BME280;14672;50.250;8.312;2023-05-08T08:54:56;99359.03;;;18.02;66.93
27144;BME280;14672;50.250;8.312;2023-05-08T08:57:27;99359.22;;;18.13;67.78
27144;BME280;14672;50.250;8.312;2023-05-08T08:59:57;99362.31;;;18.10;67.82
27144;BME280;14672;50.250;8.312;2023-05-08T09:02:24;99358.63;;;18.09;67.62
27144;BME280;14672;50.250;8.312;2023-05-08T09:04:52;99363.75;;;18.20;66.75
27144;BME280;14672;50.250;8.312;2023-05-08T09:07:17;99355.66;;;18.18;67.18
27144;BME280;14672;50.250;8.312;2023-05-08T09:09:44;99357.41;;;18.16;68.37
27144;BME280;14672;50.250;8.312;2023-05-08T09:12:12;99360.66;;;18.23;67.87
27144;BME280;14672;50.250;8.312;2023-05-08T09:14:38;99352.94;;;18.29;67.10
27144;BME280;14672;50.250;8.312;2023-05-08T09:17:04;99369.41;;;18.29;66.45
27144;BME280;14672;50.250;8.312;2023-05-08T09:19:30;99365.50;;;18.32;66.75
27144;BME280;14672;50.250;8.312;2023-05-08T09:21:59;99368.28;;;18.41;66.00
27144;BME280;14672;50.250;8.312;2023-05-08T09:27:26;99376.53;;;18.34;66.34
27144;BME280;14672;50.250;8.312;2023-05-08T09:30:08;99366.69;;;18.40;65.92
27144;BME280;14672;50.250;8.312;2023-05-08T09:32:40;99365.28;;;18.50;66.74
27144;BME280;14672;50.250;8.312;2023-05-08T09:35:07;99370.84;;;18.54;66.04
27144;BME280;14672;50.250;8.312;2023-05-08T09:37:38;99362.78;;;18.58;65.95
27144;BME280;14672;50.250;8.312;2023-05-08T09:40:21;99367.06;;;18.62;66.39
27144;BME280;14672;50.250;8.312;2023-05-08T09:42:48;99365.81;;;18.69;66.31
27144;BME280;14672;50.250;8.312;2023-05-08T09:45:31;99367.47;;;18.75;65.25
27144;BME280;14672;50.250;8.312;2023-05-08T09:47:57;99364.91;;;18.77;66.20
27144;BME280;14672;50.250;8.312;2023-05-08T09:50:23;99363.59;;;18.79;65.91
27144;BME280;14672;50.250;8.312;2023-05-08T09:52:50;99364.31;;;18.94;65.65
27144;BME280;14672;50.250;8.312;2023-05-08T09:55:16;99360.50;;;19.02;64.41
27144;BME280;14672;50.250;8.312;2023-05-08T09:57:57;99355.91;;;19.10;64.44
27144;BME280;14672;50.250;8.312;2023-05-08T10:00:26;99359.34;;;19.14;64.61
27144;BME280;14672;50.250;8.312;2023-05-08T10:03:01;99355.22;;;19.21;64.12
27144;BME280;14672;50.250;8.312;2023-05-08T10:05:31;99351.44;;;19.35;63.92
27144;BME280;14672;50.250;8.312;2023-05-08T10:08:18;99360.81;;;19.50;63.31
27144;BME280;14672;50.250;8.312;2023-05-08T10:10:44;99347.19;;;19.51;62.83
27144;BME280;14672;50.250;8.312;2023-05-08T10:13:10;99351.03;;;19.42;63.09
27144;BME280;14672;50.250;8.312;2023-05-08T10:15:37;99350.41;;;19.58;64.13
27144;BME280;14672;50.250;8.312;2023-05-08T10:18:07;99349.72;;;19.69;63.95
27144;BME280;14672;50.250;8.312;2023-05-08T10:20:38;99351.19;;;19.85;63.47
27144;BME280;14672;50.250;8.312;2023-05-08T10:23:07;99344.06;;;19.80;62.57
27144;BME280;14672;50.250;8.312;2023-05-08T10:25:46;99346.69;;;19.84;62.02
27144;BME280;14672;50.250;8.312;2023-05-08T10:28:15;99347.78;;;19.86;61.61
27144;BME280;14672;50.250;8.312;2023-05-08T10:30:48;99345.22;;;19.94;61.90
27144;BME280;14672;50.250;8.312;2023-05-08T10:33:21;99348.13;;;19.94;61.29
27144;BME280;14672;50.250;8.312;2023-05-08T10:35:49;99347.97;;;20.08;61.53
27144;BME280;14672;50.250;8.312;2023-05-08T10:38:16;99344.66;;;20.21;62.27
27144;BME280;14672;50.250;8.312;2023-05-08T10:40:47;99340.97;;;20.21;62.22
27144;BME280;14672;50.250;8.312;2023-05-08T10:43:18;99346.69;;;20.15;61.84
27144;BME280;14672;50.250;8.312;2023-05-08T10:45:44;99344.66;;;20.21;61.82
27144;BME280;14672;50.250;8.312;2023-05-08T10:53:39;99337.41;;;20.31;61.83
27144;BME280;14672;50.250;8.312;2023-05-08T10:56:09;99337.19;;;20.40;61.34
27144;BME280;14672;50.250;8.312;2023-05-08T10:58:38;99327.25;;;20.47;61.70
27144;BME280;14672;50.250;8.312;2023-05-08T11:03:47;99326.56;;;20.57;62.57
27144;BME280;14672;50.250;8.312;2023-05-08T11:06:15;99328.19;;;20.70;62.60
27144;BME280;14672;50.250;8.312;2023-05-08T11:08:50;99328.19;;;20.70;62.44
27144;BME280;14672;50.250;8.312;2023-05-08T11:11:24;99331.00;;;20.58;60.94
27144;BME280;14672;50.250;8.312;2023-05-08T11:19:27;99328.66;;;20.62;61.64
27144;BME280;14672;50.250;8.312;2023-05-08T11:24:51;99319.81;;;20.83;61.39
27144;BME280;14672;50.250;8.312;2023-05-08T11:27:17;99326.66;;;20.80;61.13
27144;BME280;14672;50.250;8.312;2023-05-08T11:29:43;99328.50;;;20.83;61.29
27144;BME280;14672;50.250;8.312;2023-05-08T11:32:11;99322.47;;;20.81;60.91
27144;BME280;14672;50.250;8.312;2023-05-08T11:37:21;99332.97;;;20.84;60.83
27144;BME280;14672;50.250;8.312;2023-05-08T11:39:49;99315.63;;;20.84;59.67
27144;BME280;14672;50.250;8.312;2023-05-08T11:45:08;99322.75;;;20.88;61.10
27144;BME280;14672;50.250;8.312;2023-05-08T11:47:43;99321.16;;;20.82;61.18
27144;BME280;14672;50.250;8.312;2023-05-08T11:50:10;99328.78;;;20.90;60.95
27144;BME280;14672;50.250;8.312;2023-05-08T11:52:40;99322.75;;;20.88;60.47
27144;BME280;14672;50.250;8.312;2023-05-08T11:55:11;99323.50;;;20.78;59.96
27144;BME280;14672;50.250;8.312;2023-05-08T11:57:37;99321.94;;;20.82;60.21
27144;BME280;14672;50.250;8.312;2023-05-08T12:00:10;99319.06;;;20.88;60.75
27144;BME280;14672;50.250;8.312;2023-05-08T12:02:37;99315.94;;;20.91;60.07
27144;BME280;14672;50.250;8.312;2023-05-08T12:05:04;99324.88;;;20.93;60.85
27144;BME280;14672;50.250;8.312;2023-05-08T12:07:46;99317.78;;;20.94;62.12
27144;BME280;14672;50.250;8.312;2023-05-08T12:10:13;99324.63;;;20.97;61.78
27144;BME280;14672;50.250;8.312;2023-05-08T12:12:41;99322.00;;;20.99;61.49
27144;BME280;14672;50.250;8.312;2023-05-08T12:15:09;99318.84;;;20.97;61.23
27144;BME280;14672;50.250;8.312;2023-05-08T12:17:35;99312.31;;;21.02;61.13
27144;BME280;14672;50.250;8.312;2023-05-08T12:20:28;99316.50;;;21.01;61.39
27144;BME280;14672;50.250;8.312;2023-05-08T12:22:54;99322.53;;;21.03;61.16
27144;BME280;14672;50.250;8.312;2023-05-08T12:25:20;99316.78;;;21.08;61.61
27144;BME280;14672;50.250;8.312;2023-05-08T12:27:46;99318.38;;;21.09;60.71
27144;BME280;14672;50.250;8.312;2023-05-08T12:30:13;99317.63;;;21.20;60.86
27144;BME280;14672;50.250;8.312;2023-05-08T12:32:40;99314.72;;;21.15;61.66
27144;BME280;14672;50.250;8.312;2023-05-08T12:35:08;99318.38;;;21.09;61.64
27144;BME280;14672;50.250;8.312;2023-05-08T12:37:34;99324.72;;;21.14;60.54
27144;BME280;14672;50.250;8.312;2023-05-08T12:40:02;99316.06;;;21.14;60.44
27144;BME280;14672;50.250;8.312;2023-05-08T12:45:22;99316.56;;;21.12;61.58
27144;BME280;14672;50.250;8.312;2023-05-08T12:47:51;99316.34;;;21.27;60.98
27144;BME280;14672;50.250;8.312;2023-05-08T12:50:19;99319.50;;;21.29;61.62
27144;BME280;14672;50.250;8.312;2023-05-08T12:52:47;99310.84;;;21.29;62.04
27144;BME280;14672;50.250;8.312;2023-05-08T12:55:27;99310.84;;;21.40;62.25
27144;BME280;14672;50.250;8.312;2023-05-08T12:58:08;99303.75;;;21.35;61.79
27144;BME280;14672;50.250;8.312;2023-05-08T13:00:53;99306.13;;;21.37;61.75
27144;BME280;14672;50.250;8.312;2023-05-08T13:03:28;99306.66;;;21.41;60.41
27144;BME280;14672;50.250;8.312;2023-05-08T13:05:57;99303.75;;;21.35;60.03
27144;BME280;14672;50.250;8.312;2023-05-08T13:08:35;99307.69;;;21.38;60.14
27144;BME280;14672;50.250;8.312;2023-05-08T13:11:06;99309.56;;;21.52;60.25
27144;BME280;14672;50.250;8.312;2023-05-08T13:13:35;99306.41;;;21.55;60.50
27144;BME280;14672;50.250;8.312;2023-05-08T13:16:04;99301.44;;;21.62;60.94
27144;BME280;14672;50.250;8.312;2023-05-08T13:18:31;99310.63;;;21.71;60.52
27144;BME280;14672;50.250;8.312;2023-05-08T13:20:57;99300.91;;;21.69;59.72
27144;BME280;14672;50.250;8.312;2023-05-08T13:23:24;99299.59;;;21.81;59.67
27144;BME280;14672;50.250;8.312;2023-05-08T13:25:53;99302.72;;;21.83;59.90
27144;BME280;14672;50.250;8.312;2023-05-08T13:28:19;99294.06;;;21.88;59.13
27144;BME280;14672;50.250;8.312;2023-05-08T13:30:45;99298.56;;;22.00;59.30
27144;BME280;14672;50.250;8.312;2023-05-08T13:33:12;99281.19;;;22.06;58.85
27144;BME280;14672;50.250;8.312;2023-05-08T13:35:37;99275.13;;;22.15;58.79
27144;BME280;14672;50.250;8.312;2023-05-08T13:38:03;99279.56;;;22.27;58.88
27144;BME280;14672;50.250;8.312;2023-05-08T13:40:30;99276.44;;;22.25;59.70
27144;BME280;14672;50.250;8.312;2023-05-08T13:42:56;99282.44;;;22.44;59.27
27144;BME280;14672;50.250;8.312;2023-05-08T13:45:22;99270.84;;;22.44;58.63
27144;BME280;14672;50.250;8.312;2023-05-08T13:47:49;99267.41;;;22.45;58.78
27144;BME280;14672;50.250;8.312;2023-05-08T13:50:16;99269.50;;;22.51;59.00